Time;durP1;ratioP1;P1;durP2;ratioP2;P2;SDS_P1;SDS_P2;PMS_P1;PMS_P2;Temp;Humidity;BMP_temperature;BMP_pressure;BME280_temperature;BME280_humidity;BME280_pressure;Samples;Min_cycle;Max_cycle;Signal;HPM_P1;HPM_P2
2022/12/21 00:01:26;;;;;;;37.17;20.75;;;4.20;99.90;;;;;;4881997;29;20132;-71
2022/12/21 00:03:58;;;;;;;36.75;20.38;;;4.20;99.90;;;;;;4884904;29;20083;-69
2022/12/21 00:06:26;;;;;;;;;;;4.20;99.90;;;;;;4888661;29;20144;-70
2022/12/21 00:08:56;;;;;;;42.67;19.83;;;4.20;99.90;;;;;;4887637;29;19996;-70
2022/12/21 00:11:25;;;;;;;37.60;20.70;;;4.30;99.90;;;;;;4883685;29;20131;-70
2022/12/21 00:13:55;;;;;;;37.70;20.30;;;4.30;99.90;;;;;;4888580;29;20064;-69
2022/12/21 00:16:25;;;;;;;39.20;20.48;;;4.30;99.90;;;;;;4905728;29;20044;-70
2022/12/21 00:18:52;;;;;;;37.20;20.45;;;4.30;99.90;;;;;;4892107;29;20132;-70
2022/12/21 00:21:22;;;;;;;35.92;19.73;;;4.30;99.90;;;;;;4884800;29;20076;-70
2022/12/21 00:23:52;;;;;;;38.17;21.40;;;4.30;99.90;;;;;;4881229;29;20056;-70
2022/12/21 00:26:21;;;;;;;35.15;20.58;;;4.30;99.90;;;;;;4884743;29;20071;-70
2022/12/21 00:28:50;;;;;;;39.40;20.67;;;4.30;99.90;;;;;;4900708;29;20059;-70
2022/12/21 00:31:32;;;;;;;34.42;20.15;;;4.30;99.90;;;;;;4884209;29;20167;-68
2022/12/21 00:34:00;;;;;;;43.78;21.33;;;4.30;99.90;;;;;;4899306;29;20053;-70
2022/12/21 00:36:31;;;;;;;35.20;20.08;;;4.30;99.90;;;;;;4910600;29;20512;-70
2022/12/21 00:38:59;;;;;;;35.55;20.33;;;4.30;99.90;;;;;;4894567;29;20048;-70
2022/12/21 00:41:27;;;;;;;34.65;20.20;;;4.20;99.90;;;;;;4891903;29;20421;-70
2022/12/21 00:43:55;;;;;;;41.33;20.83;;;4.20;99.90;;;;;;4876241;29;20112;-70
2022/12/21 00:46:26;;;;;;;37.10;20.02;;;4.20;99.90;;;;;;4894149;29;20045;-70
2022/12/21 00:48:56;;;;;;;37.60;20.85;;;4.20;99.90;;;;;;4905823;29;20510;-69
2022/12/21 00:51:24;;;;;;;37.33;21.17;;;4.20;99.90;;;;;;4896116;29;20121;-70
2022/12/21 00:53:53;;;;;;;34.67;20.13;;;4.20;99.90;;;;;;4890478;29;20139;-69
2022/12/21 00:56:21;;;;;;;36.75;20.52;;;4.20;99.90;;;;;;4883971;29;20044;-70
2022/12/21 00:58:48;;;;;;;38.72;20.92;;;4.20;99.90;;;;;;4902297;29;20538;-70
2022/12/21 01:01:21;;;;;;;41.05;20.75;;;4.30;99.90;;;;;;4895816;29;20053;-69
2022/12/21 01:03:52;;;;;;;35.50;20.35;;;4.30;99.90;;;;;;4877673;29;20047;-69
2022/12/21 01:06:23;;;;;;;37.13;20.73;;;4.30;99.90;;;;;;4878874;29;20049;-70
2022/12/21 01:08:51;;;;;;;36.53;19.70;;;4.30;99.90;;;;;;4888187;29;20139;-70
2022/12/21 01:11:19;;;;;;;38.83;20.60;;;4.30;99.90;;;;;;4880685;29;20160;-69
2022/12/21 01:13:47;;;;;;;40.13;22.15;;;4.30;99.90;;;;;;4908142;29;20171;-70
2022/12/21 01:16:20;;;;;;;37.35;20.42;;;4.30;99.90;;;;;;4890475;29;20053;-70
2022/12/21 01:18:48;;;;;;;40.38;20.80;;;4.30;99.90;;;;;;4885016;29;20140;-70
2022/12/21 01:21:21;;;;;;;35.83;20.33;;;4.30;99.90;;;;;;4897410;29;20809;-70
2022/12/21 01:23:49;;;;;;;36.63;20.13;;;4.30;99.90;;;;;;4878766;29;20499;-70
2022/12/21 01:26:17;;;;;;;36.00;20.02;;;4.30;99.90;;;;;;4900692;29;20080;-70
2022/12/21 01:28:45;;;;;;;35.80;20.17;;;4.30;99.90;;;;;;4883630;29;20056;-69
2022/12/21 01:31:13;;;;;;;41.65;20.88;;;4.30;99.90;;;;;;4882569;29;20140;-70
2022/12/21 01:33:43;;;;;;;35.25;20.17;;;4.30;99.90;;;;;;4881198;29;20385;-69
2022/12/21 01:36:14;;;;;;;41.38;20.67;;;4.30;99.90;;;;;;4880540;29;20179;-69
2022/12/21 01:38:43;;;;;;;38.50;20.42;;;4.20;99.90;;;;;;4883312;29;20086;-70
2022/12/21 01:41:18;;;;;;;39.65;20.33;;;4.20;99.90;;;;;;4889923;29;20447;-70
2022/12/21 01:43:45;;;;;;;39.38;22.13;;;4.20;99.90;;;;;;4901735;29;20052;-69
2022/12/21 01:46:38;;;;;;;38.00;20.98;;;4.20;99.90;;;;;;4891443;29;20475;-69
2022/12/21 01:49:10;;;;;;;39.35;20.95;;;4.30;99.90;;;;;;4886567;29;20057;-69
2022/12/21 01:51:42;;;;;;;42.58;21.65;;;4.30;99.90;;;;;;4901643;29;20484;-69
2022/12/21 01:54:20;;;;;;;38.35;20.77;;;4.20;99.90;;;;;;4881848;29;20041;-69
2022/12/21 01:56:53;;;;;;;37.60;20.15;;;4.20;99.90;;;;;;4904421;29;20104;-69
2022/12/21 01:59:30;;;;;;;37.45;20.65;;;4.20;99.90;;;;;;4889939;29;20541;-69
2022/12/21 02:02:05;;;;;;;37.83;20.60;;;4.20;99.90;;;;;;4887028;29;20049;-69
2022/12/21 02:04:32;;;;;;;37.60;21.15;;;4.20;99.90;;;;;;4877158;29;20147;-69
2022/12/21 02:07:00;;;;;;;40.05;21.67;;;4.30;99.90;;;;;;4880352;29;20053;-69
2022/12/21 02:09:34;;;;;;;41.25;21.30;;;4.30;99.90;;;;;;4895829;29;20460;-69
2022/12/21 02:12:04;;;;;;;35.55;20.92;;;4.30;99.90;;;;;;4877980;29;20389;-69
2022/12/21 02:14:37;;;;;;;38.53;21.08;;;4.30;99.90;;;;;;4898249;29;20045;-69
2022/12/21 02:17:44;;;;;;;35.33;20.15;;;4.30;99.90;;;;;;4897800;29;20047;-69
2022/12/21 02:20:31;;;;;;;39.00;21.42;;;4.30;99.90;;;;;;4878709;29;20087;-69
2022/12/21 02:23:17;;;;;;;39.75;21.05;;;4.40;99.90;;;;;;4891105;29;20045;-69
2022/12/21 02:26:17;;;;;;;36.75;20.08;;;4.40;99.90;;;;;;4895973;29;20050;-69
2022/12/21 02:28:50;;;;;;;33.17;19.40;;;4.40;99.90;;;;;;4879562;29;20132;-69
2022/12/21 02:31:48;;;;;;;35.00;20.25;;;4.40;99.90;;;;;;4874334;29;20045;-69
2022/12/21 02:34:30;;;;;;;35.08;19.60;;;4.40;99.90;;;;;;4880822;29;20088;-70
2022/12/21 02:37:12;;;;;;;41.38;21.48;;;4.50;99.90;;;;;;4884670;29;20087;-69
2022/12/21 02:39:55;;;;;;;34.22;18.75;;;4.40;99.90;;;;;;4888241;29;20097;-69
2022/12/21 02:45:56;;;;;;;34.05;19.80;;;4.40;99.90;;;;;;4837190;29;20049;-70
2022/12/21 02:49:08;;;;;;;34.25;18.95;;;4.40;99.90;;;;;;4854351;29;20072;-70
2022/12/21 02:51:58;;;;;;;43.38;21.95;;;4.50;99.90;;;;;;4854371;29;20157;-70
2022/12/21 02:54:26;;;;;;;37.65;19.77;;;4.40;99.90;;;;;;4854771;29;20078;-70
2022/12/21 02:56:53;;;;;;;35.97;21.00;;;4.40;99.90;;;;;;4854144;29;20660;-71
2022/12/21 02:59:27;;;;;;;34.38;20.02;;;4.50;99.90;;;;;;4854863;29;20049;-70
2022/12/21 03:02:25;;;;;;;39.55;21.38;;;4.50;99.90;;;;;;4838109;29;20576;-70
2022/12/21 03:05:24;;;;;;;37.55;19.80;;;4.50;99.90;;;;;;4849784;29;20053;-70
2022/12/21 03:08:08;;;;;;;37.72;19.60;;;4.50;99.90;;;;;;4836879;29;20078;-69
2022/12/21 03:11:00;;;;;;;36.33;20.90;;;4.50;99.90;;;;;;4837117;29;20060;-69
2022/12/21 03:13:53;;;;;;;40.67;20.52;;;4.50;99.90;;;;;;4854742;29;20103;-70
2022/12/21 03:16:36;;;;;;;45.10;23.33;;;4.50;99.90;;;;;;4838072;29;20056;-69
2022/12/21 03:19:11;;;;;;;40.00;21.17;;;4.50;99.90;;;;;;4837342;29;20046;-71
2022/12/21 03:22:01;;;;;;;38.03;20.48;;;4.60;99.90;;;;;;4854345;29;20053;-70
2022/12/21 03:24:33;;;;;;;36.67;20.92;;;4.60;99.90;;;;;;4877610;29;20052;-70
2022/12/21 03:27:06;;;;;;;33.65;20.15;;;4.60;99.90;;;;;;4894102;29;20519;-70
2022/12/21 03:29:40;;;;;;;36.85;20.05;;;4.60;99.90;;;;;;4883820;29;20505;-70
2022/12/21 03:32:18;;;;;;;36.35;19.33;;;4.70;99.90;;;;;;4885085;29;20048;-70
2022/12/21 03:34:49;;;;;;;36.03;21.13;;;4.70;99.90;;;;;;4908491;29;20051;-70
2022/12/21 03:37:37;;;;;;;36.97;19.70;;;4.70;99.90;;;;;;4900912;29;20065;-70
2022/12/21 03:40:21;;;;;;;34.38;20.63;;;4.70;99.90;;;;;;4875596;29;20072;-70
2022/12/21 03:42:59;;;;;;;38.40;21.02;;;4.70;99.90;;;;;;4893443;29;20500;-70
2022/12/21 03:45:34;;;;;;;35.42;20.52;;;4.70;99.90;;;;;;4888662;29;20045;-70
2022/12/21 03:48:32;;;;;;;37.08;20.52;;;4.70;99.90;;;;;;4895548;29;20045;-70
2022/12/21 03:51:13;;;;;;;36.97;20.13;;;4.80;99.90;;;;;;4870352;29;20243;-70
2022/12/21 03:53:54;;;;;;;37.28;19.90;;;4.90;99.90;;;;;;4877656;29;20357;-70
2022/12/21 03:56:30;;;;;;;36.55;20.67;;;4.90;99.90;;;;;;4883515;29;20053;-69
2022/12/21 03:58:59;;;;;;;35.10;19.88;;;4.90;99.90;;;;;;4886200;29;20131;-70
2022/12/21 04:01:39;;;;;;;34.70;19.33;;;4.90;99.90;;;;;;4887076;29;20060;-70
2022/12/21 04:04:28;;;;;;;35.00;19.98;;;4.90;99.90;;;;;;4890465;29;20451;-70
2022/12/21 04:07:00;;;;;;;34.45;18.75;;;5.00;99.90;;;;;;4886857;29;20464;-69
2022/12/21 04:09:27;;;;;;;37.00;20.80;;;5.00;99.90;;;;;;4887019;29;20396;-69
2022/12/21 04:14:43;;;;;;;38.33;19.60;;;5.00;99.90;;;;;;4878302;29;20465;-69
2022/12/21 04:17:10;;;;;;;32.08;19.20;;;5.10;99.90;;;;;;4890386;29;20052;-70
2022/12/21 04:28:14;;;;;;;40.05;19.48;;;5.20;99.90;;;;;;4900503;29;20080;-69
2022/12/21 04:31:01;;;;;;;31.48;18.08;;;5.20;99.90;;;;;;4887671;29;20468;-70
2022/12/21 04:33:30;;;;;;;31.98;18.83;;;5.30;99.90;;;;;;4885315;29;20120;-69
2022/12/21 04:38:45;;;;;;;37.20;18.80;;;5.40;99.90;;;;;;4877160;29;20053;-69
2022/12/21 04:41:12;;;;;;;28.48;17.55;;;5.40;99.90;;;;;;4885231;29;20441;-71
2022/12/21 04:43:40;;;;;;;30.60;18.85;;;5.40;99.90;;;;;;4893885;29;20051;-70
2022/12/21 04:46:12;;;;;;;33.08;19.90;;;5.40;99.90;;;;;;4879240;29;20143;-69
2022/12/21 04:48:40;;;;;;;31.90;18.17;;;5.40;99.90;;;;;;4888516;29;20051;-69
2022/12/21 04:51:10;;;;;;;28.40;17.67;;;5.40;99.90;;;;;;4883469;29;20045;-68
2022/12/21 04:53:38;;;;;;;32.63;18.20;;;5.50;99.90;;;;;;4892720;29;20052;-71
2022/12/21 04:56:07;;;;;;;30.90;19.13;;;5.40;99.90;;;;;;4883429;29;20045;-69
2022/12/21 04:58:35;;;;;;;31.02;18.42;;;5.40;99.90;;;;;;4892669;29;20076;-69
2022/12/21 05:01:08;;;;;;;36.25;19.88;;;5.40;99.90;;;;;;4885938;29;20681;-69
2022/12/21 05:03:35;;;;;;;31.95;18.35;;;5.40;99.90;;;;;;4905989;29;20048;-71
2022/12/21 05:06:03;;;;;;;31.95;19.15;;;5.40;99.90;;;;;;4900354;29;20195;-69
2022/12/21 05:08:30;;;;;;;31.25;17.98;;;5.50;99.90;;;;;;4902819;29;20111;-70
2022/12/21 05:11:21;;;;;;;34.80;19.05;;;5.40;99.90;;;;;;4902810;29;20045;-69
2022/12/21 05:13:49;;;;;;;28.23;19.23;;;5.40;99.90;;;;;;4906481;29;20037;-70
2022/12/21 05:16:20;;;;;;;33.92;19.02;;;5.50;99.90;;;;;;4872570;29;20043;-70
2022/12/21 05:18:48;;;;;;;31.77;18.70;;;5.50;99.90;;;;;;4882838;29;20492;-70
2022/12/21 05:21:16;;;;;;;31.70;20.02;;;5.40;99.90;;;;;;4891908;29;20500;-70
2022/12/21 05:23:44;;;;;;;30.85;19.60;;;5.50;99.90;;;;;;4895856;29;20120;-70
2022/12/21 05:26:12;;;;;;;32.03;18.50;;;5.50;99.90;;;;;;4874653;29;20129;-70
2022/12/21 05:28:46;;;;;;;33.95;19.20;;;5.50;99.90;;;;;;4876814;29;20049;-70
2022/12/21 05:31:14;;;;;;;30.75;18.85;;;5.50;99.90;;;;;;4881065;29;20056;-70
2022/12/21 05:33:42;;;;;;;30.38;19.05;;;5.50;99.90;;;;;;4875474;29;20120;-70
2022/12/21 05:36:12;;;;;;;29.52;17.75;;;5.50;99.90;;;;;;4889592;29;20095;-69
2022/12/21 05:38:40;;;;;;;31.88;18.73;;;5.50;99.90;;;;;;4876561;29;20192;-70
2022/12/21 05:41:09;;;;;;;31.60;17.67;;;5.50;99.90;;;;;;4898472;29;20067;-70
2022/12/21 05:43:37;;;;;;;33.05;19.75;;;5.60;99.90;;;;;;4889248;29;20567;-70
2022/12/21 05:46:06;;;;;;;31.40;19.30;;;5.60;99.90;;;;;;4879760;29;20041;-69
2022/12/21 05:48:34;;;;;;;28.10;17.65;;;5.60;99.90;;;;;;4882412;29;20127;-70
2022/12/21 05:51:13;;;;;;;29.13;18.35;;;5.60;99.90;;;;;;4889127;29;20052;-70
2022/12/21 05:53:42;;;;;;;30.55;19.70;;;5.60;99.90;;;;;;4883491;29;20052;-70
2022/12/21 05:56:10;;;;;;;28.55;18.45;;;5.60;99.90;;;;;;4888359;29;20496;-70
2022/12/21 05:58:37;;;;;;;29.92;18.35;;;5.70;99.90;;;;;;4900120;29;20381;-70
2022/12/21 06:01:07;;;;;;;28.73;17.98;;;5.70;99.90;;;;;;4889331;29;20514;-71
2022/12/21 06:03:35;;;;;;;31.42;18.05;;;5.70;99.90;;;;;;4884891;29;20496;-71
2022/12/21 06:06:16;;;;;;;26.77;17.73;;;5.70;99.90;;;;;;4881923;29;20449;-72
2022/12/21 06:08:44;;;;;;;31.00;18.63;;;5.80;99.90;;;;;;4889031;29;20128;-72
2022/12/21 06:11:14;;;;;;;31.35;18.17;;;5.80;99.90;;;;;;4885364;29;20319;-70
2022/12/21 06:13:42;;;;;;;31.10;19.08;;;5.80;99.90;;;;;;4894994;29;20068;-71
2022/12/21 06:16:18;;;;;;;29.75;17.73;;;5.80;99.90;;;;;;4890374;29;20053;-71
2022/12/21 06:18:46;;;;;;;31.83;18.30;;;5.80;99.90;;;;;;4890328;29;20131;-71
2022/12/21 06:21:15;;;;;;;31.60;18.15;;;5.90;99.90;;;;;;4882159;29;20072;-70
2022/12/21 06:23:44;;;;;;;30.33;18.23;;;5.80;99.90;;;;;;4900884;29;20055;-71
2022/12/21 06:26:15;;;;;;;27.15;17.58;;;5.90;99.90;;;;;;4883743;29;20525;-71
2022/12/21 06:28:50;;;;;;;30.35;18.77;;;5.90;99.90;;;;;;4886656;29;20053;-70
2022/12/21 06:31:19;;;;;;;31.02;18.63;;;6.00;99.90;;;;;;4880058;29;20469;-72
2022/12/21 06:33:46;;;;;;;36.13;19.15;;;6.00;99.90;;;;;;4872419;29;20423;-72
2022/12/21 06:36:14;;;;;;;31.02;19.52;;;6.00;99.90;;;;;;4876450;29;20497;-71
2022/12/21 06:38:41;;;;;;;31.30;18.58;;;6.00;99.90;;;;;;4887144;29;20055;-70
2022/12/21 06:41:11;;;;;;;31.40;18.90;;;6.00;99.90;;;;;;4892290;29;20067;-71
2022/12/21 06:43:40;;;;;;;31.88;19.17;;;6.10;99.90;;;;;;4889459;29;20040;-71
2022/12/21 06:46:10;;;;;;;32.28;18.80;;;6.10;99.90;;;;;;4890527;29;20109;-71
2022/12/21 06:48:39;;;;;;;30.80;18.57;;;6.10;99.90;;;;;;4874346;29;20465;-70
2022/12/21 06:51:19;;;;;;;29.65;18.08;;;6.10;99.90;;;;;;4876528;29;20045;-71
2022/12/21 06:53:50;;;;;;;26.83;16.63;;;6.20;99.90;;;;;;4881952;29;20056;-71
2022/12/21 06:56:28;;;;;;;27.98;17.45;;;6.20;99.90;;;;;;4890754;29;20049;-72
2022/12/21 06:58:56;;;;;;;30.63;18.60;;;6.20;99.90;;;;;;4890526;29;20049;-72
2022/12/21 07:01:33;;;;;;;29.85;18.83;;;6.30;99.90;;;;;;4887643;29;20049;-72
2022/12/21 07:04:00;;;;;;;38.10;20.20;;;6.20;99.90;;;;;;4874955;29;20053;-72
2022/12/21 07:06:30;;;;;;;28.15;17.90;;;6.30;99.90;;;;;;4878173;29;20049;-71
2022/12/21 07:08:58;;;;;;;34.50;18.45;;;6.30;99.90;;;;;;4890206;29;20515;-71
2022/12/21 07:11:28;;;;;;;31.92;18.33;;;6.30;99.90;;;;;;4885006;29;20056;-73
2022/12/21 07:13:56;;;;;;;26.98;17.25;;;6.30;99.90;;;;;;4875971;29;20072;-71
2022/12/21 07:16:24;;;;;;;28.38;17.67;;;6.30;99.90;;;;;;4889790;29;20041;-71
2022/12/21 07:18:53;;;;;;;28.75;17.30;;;6.40;99.90;;;;;;4876322;29;20049;-72
2022/12/21 07:21:21;;;;;;;33.58;18.23;;;6.40;99.90;;;;;;4875787;29;20580;-71
2022/12/21 07:23:49;;;;;;;31.60;20.55;;;6.40;99.90;;;;;;4895662;29;20171;-73
2022/12/21 07:26:22;;;;;;;29.90;18.50;;;6.40;99.90;;;;;;4866899;29;20052;-73
2022/12/21 07:28:49;;;;;;;30.52;17.60;;;6.40;99.90;;;;;;4879745;29;20516;-72
2022/12/21 07:31:19;;;;;;;28.60;17.45;;;6.40;99.90;;;;;;4876518;29;20053;-73
2022/12/21 07:33:46;;;;;;;29.05;17.95;;;6.50;99.90;;;;;;4878244;29;20045;-72
2022/12/21 07:36:14;;;;;;;26.52;16.73;;;6.50;99.90;;;;;;4887874;29;20493;-72
2022/12/21 07:38:42;;;;;;;33.42;17.98;;;6.50;99.90;;;;;;4885305;29;20579;-72
2022/12/21 07:41:12;;;;;;;27.67;16.02;;;6.50;99.90;;;;;;4885233;29;20053;-72
2022/12/21 07:43:40;;;;;;;25.95;16.42;;;6.50;99.90;;;;;;4889713;29;20481;-72
2022/12/21 07:46:26;;;;;;;33.70;18.05;;;6.50;99.90;;;;;;4875747;29;20331;-72
2022/12/21 07:48:54;;;;;;;25.00;16.27;;;6.50;99.90;;;;;;4889290;29;20075;-71
2022/12/21 07:51:22;;;;;;;26.77;17.23;;;6.50;99.90;;;;;;4877436;29;20052;-71
2022/12/21 07:53:49;;;;;;;27.15;16.85;;;6.50;99.90;;;;;;4889329;29;20632;-72
2022/12/21 07:56:18;;;;;;;28.38;16.90;;;6.50;99.90;;;;;;4867722;29;20813;-72
2022/12/21 07:58:45;;;;;;;28.90;16.15;;;6.50;99.90;;;;;;4887731;29;20041;-72
2022/12/21 08:01:16;;;;;;;30.08;17.13;;;6.60;99.90;;;;;;4883034;29;20060;-71
2022/12/21 08:03:45;;;;;;;31.80;17.63;;;6.60;99.90;;;;;;4884182;29;20052;-70
2022/12/21 08:06:14;;;;;;;28.40;17.90;;;6.60;99.90;;;;;;4888090;29;20067;-73
2022/12/21 08:08:41;;;;;;;25.88;16.77;;;6.60;99.90;;;;;;4885699;29;20052;-72
2022/12/21 08:11:18;;;;;;;29.60;18.52;;;6.60;99.90;;;;;;4876298;29;20045;-71
2022/12/21 08:13:47;;;;;;;38.85;19.73;;;6.60;99.90;;;;;;4892119;29;20090;-71
2022/12/21 08:16:16;;;;;;;29.52;17.60;;;6.70;99.90;;;;;;4898296;29;20084;-71
2022/12/21 08:18:45;;;;;;;28.38;17.45;;;6.70;99.90;;;;;;4900880;29;20121;-71
2022/12/21 08:21:12;;;;;;;28.35;17.20;;;6.70;99.90;;;;;;4877876;29;20049;-72
2022/12/21 08:23:40;;;;;;;26.55;16.77;;;6.70;99.90;;;;;;4881028;29;20510;-72
2022/12/21 08:26:12;;;;;;;25.52;15.77;;;6.70;99.90;;;;;;4879810;29;20113;-71
2022/12/21 08:28:41;;;;;;;29.77;17.58;;;6.70;99.90;;;;;;4877815;29;20053;-71
2022/12/21 08:31:16;;;;;;;28.67;18.08;;;6.70;99.90;;;;;;4877037;29;20136;-72
2022/12/21 08:33:46;;;;;;;27.08;16.83;;;6.70;99.90;;;;;;4879873;29;20037;-71
2022/12/21 08:36:16;;;;;;;34.83;17.33;;;6.70;99.90;;;;;;4879256;29;20491;-72
2022/12/21 08:38:44;;;;;;;25.23;15.95;;;6.80;99.90;;;;;;4884326;29;20049;-72
2022/12/21 08:41:31;;;;;;;29.33;16.95;;;6.80;99.90;;;;;;4889914;29;20438;-72
2022/12/21 08:43:59;;;;;;;25.27;16.63;;;6.80;99.90;;;;;;4894497;29;20049;-71
2022/12/21 08:46:26;;;;;;;26.20;17.38;;;6.80;99.90;;;;;;4881345;29;20783;-72
2022/12/21 08:48:54;;;;;;;26.40;16.15;;;6.80;99.90;;;;;;4890332;29;20067;-72
2022/12/21 08:51:21;;;;;;;28.85;16.98;;;6.80;99.90;;;;;;4880003;29;20049;-72
2022/12/21 08:53:49;;;;;;;28.58;18.05;;;6.80;99.90;;;;;;4892194;29;20044;-72
2022/12/21 08:56:19;;;;;;;28.35;17.50;;;6.80;99.90;;;;;;4878969;29;20156;-72
2022/12/21 08:58:47;;;;;;;24.58;16.30;;;6.80;99.90;;;;;;4875546;29;20045;-73
2022/12/21 09:01:22;;;;;;;25.25;17.17;;;6.80;99.90;;;;;;4878512;29;20421;-72
2022/12/21 09:03:50;;;;;;;26.95;16.48;;;6.80;99.90;;;;;;4874299;29;20048;-71
2022/12/21 09:06:17;;;;;;;26.73;17.10;;;6.90;99.90;;;;;;4878041;29;20040;-72
2022/12/21 09:08:45;;;;;;;25.83;15.25;;;6.90;99.90;;;;;;4900112;29;20040;-72
2022/12/21 09:11:14;;;;;;;24.42;16.55;;;6.90;99.90;;;;;;4892643;29;20062;-72
2022/12/21 09:13:42;;;;;;;25.55;16.52;;;6.90;99.90;;;;;;4878252;29;20045;-71
2022/12/21 09:16:18;;;;;;;28.83;17.27;;;7.00;99.90;;;;;;4875662;29;20037;-73
2022/12/21 09:18:47;;;;;;;25.95;17.08;;;7.00;99.90;;;;;;4872546;29;20602;-72
2022/12/21 09:21:15;;;;;;;22.85;15.50;;;7.00;99.90;;;;;;4890601;29;20049;-72
2022/12/21 09:23:43;;;;;;;32.20;16.17;;;6.90;99.90;;;;;;4869763;29;20049;-71
2022/12/21 09:26:11;;;;;;;24.27;16.20;;;6.90;99.90;;;;;;4890019;29;20051;-73
2022/12/21 09:28:39;;;;;;;25.15;16.00;;;7.00;99.90;;;;;;4894261;29;20067;-71
2022/12/21 09:31:13;;;;;;;28.65;17.05;;;7.00;99.90;;;;;;4892195;29;20048;-72
2022/12/21 09:33:50;;;;;;;26.08;16.33;;;7.00;99.90;;;;;;4889622;29;20412;-73
2022/12/21 09:36:19;;;;;;;24.58;16.40;;;7.00;99.90;;;;;;4893177;29;20094;-73
2022/12/21 09:38:47;;;;;;;26.13;16.30;;;7.00;99.90;;;;;;4888912;29;20140;-73
2022/12/21 09:41:36;;;;;;;22.92;15.13;;;7.10;99.90;;;;;;4887224;29;20531;-73
2022/12/21 09:44:22;;;;;;;25.95;15.57;;;7.10;99.90;;;;;;4889921;29;20135;-72
2022/12/21 09:46:54;;;;;;;24.63;15.63;;;7.10;99.90;;;;;;4873739;29;20045;-73
2022/12/21 09:49:39;;;;;;;25.83;16.03;;;7.10;99.90;;;;;;4888863;29;20049;-73
2022/12/21 09:52:17;;;;;;;24.85;15.90;;;7.10;99.90;;;;;;4895080;29;20045;-75
2022/12/21 09:54:53;;;;;;;30.60;18.02;;;7.10;99.90;;;;;;4894504;29;20418;-73
2022/12/21 09:57:20;;;;;;;28.65;15.57;;;7.10;99.90;;;;;;4875429;29;20060;-74
2022/12/21 09:59:48;;;;;;;24.67;16.55;;;7.20;99.90;;;;;;4873070;29;20658;-73
2022/12/21 10:02:21;;;;;;;22.60;15.02;;;7.20;99.90;;;;;;4876294;29;20075;-74
2022/12/21 10:05:06;;;;;;;24.30;15.75;;;7.20;99.90;;;;;;4890632;29;20115;-73
2022/12/21 10:08:17;;;;;;;26.67;15.75;;;7.20;99.90;;;;;;4884168;29;20048;-73
2022/12/21 10:11:08;;;;;;;21.20;14.77;;;7.20;99.90;;;;;;4865565;29;20052;-74
2022/12/21 10:14:02;;;;;;;23.85;15.70;;;7.20;99.90;;;;;;4852456;29;20050;-73
2022/12/21 10:16:45;;;;;;;21.83;14.77;;;7.20;99.90;;;;;;4842704;29;20076;-75
2022/12/21 10:20:02;;;;;;;23.95;14.30;;;7.30;99.90;;;;;;4859517;29;20061;-73
2022/12/21 10:22:42;;;;;;;21.52;14.23;;;7.30;99.90;;;;;;4847057;29;20060;-73
2022/12/21 10:25:17;;;;;;;21.35;14.25;;;7.30;99.90;;;;;;4838069;29;20247;-73
2022/12/21 10:27:48;;;;;;;25.52;14.65;;;7.40;99.90;;;;;;4846769;29;20234;-73
2022/12/21 10:30:16;;;;;;;24.30;14.88;;;7.40;99.90;;;;;;4820558;29;20050;-73
2022/12/21 10:32:48;;;;;;;23.13;15.18;;;7.40;99.90;;;;;;4838763;29;20054;-74
2022/12/21 10:35:34;;;;;;;23.92;15.88;;;7.40;99.90;;;;;;4837473;29;20533;-73
2022/12/21 10:38:15;;;;;;;20.25;14.35;;;7.40;99.90;;;;;;4837003;29;20547;-73
2022/12/21 10:40:52;;;;;;;26.85;15.07;;;7.50;99.90;;;;;;4835888;29;20072;-73
2022/12/21 10:43:21;;;;;;;24.48;15.65;;;7.50;99.90;;;;;;4823393;29;20049;-74
2022/12/21 10:45:49;;;;;;;22.30;15.05;;;7.50;99.90;;;;;;4857752;29;20583;-74
2022/12/21 10:48:17;;;;;;;22.00;14.98;;;7.50;99.90;;;;;;4859046;29;20045;-73
2022/12/21 10:50:50;;;;;;;22.63;14.88;;;7.60;99.90;;;;;;4873299;29;20049;-74
2022/12/21 10:53:25;;;;;;;34.38;20.05;;;7.70;99.90;;;;;;4873250;29;20077;-73
2022/12/21 10:55:56;;;;;;;22.70;15.65;;;7.80;99.90;;;;;;4873082;29;20125;-74
2022/12/21 10:58:27;;;;;;;22.83;15.13;;;7.80;99.90;;;;;;4873422;29;20415;-74
2022/12/21 11:00:54;;;;;;;20.92;14.70;;;7.80;99.90;;;;;;4890451;29;20043;-74
2022/12/21 11:03:30;;;;;;;21.20;13.93;;;7.80;99.90;;;;;;4886289;29;20051;-74
2022/12/21 11:06:16;;;;;;;21.90;13.95;;;7.80;99.90;;;;;;4875356;29;20045;-74
2022/12/21 11:08:47;;;;;;;22.88;14.68;;;7.80;99.90;;;;;;4896871;29;20429;-75
2022/12/21 11:11:30;;;;;;;21.20;14.52;;;7.90;99.90;;;;;;4876438;29;20053;-74
2022/12/21 11:14:17;;;;;;;20.55;14.15;;;7.90;99.90;;;;;;4900225;29;20705;-73
2022/12/21 11:16:45;;;;;;;23.40;14.75;;;7.80;99.90;;;;;;4901410;29;20132;-73
2022/12/21 11:19:15;;;;;;;25.17;15.27;;;7.90;99.90;;;;;;4884696;29;20393;-73
2022/12/21 11:21:50;;;;;;;24.77;15.25;;;7.90;99.90;;;;;;4881101;29;20132;-72
2022/12/21 11:24:36;;;;;;;22.98;14.93;;;8.00;99.90;;;;;;4895419;29;20068;-72
2022/12/21 11:27:30;;;;;;;19.90;13.00;;;7.90;99.90;;;;;;4867198;29;20113;-73
2022/12/21 11:30:18;;;;;;;23.15;14.43;;;8.00;99.90;;;;;;4893753;29;20052;-72
2022/12/21 11:32:48;;;;;;;22.00;13.32;;;8.00;99.90;;;;;;4863515;29;20045;-74
2022/12/21 11:35:28;;;;;;;21.85;14.25;;;8.00;99.90;;;;;;4870832;29;20555;-73
2022/12/21 11:38:13;;;;;;;21.23;13.30;;;8.00;99.90;;;;;;4890226;29;20068;-72
2022/12/21 11:40:55;;;;;;;22.20;13.75;;;8.00;99.90;;;;;;4888167;29;20041;-73
2022/12/21 11:43:22;;;;;;;20.27;13.05;;;8.00;99.90;;;;;;4891786;29;20053;-72
2022/12/21 11:45:59;;;;;;;19.02;13.00;;;8.10;99.90;;;;;;4876191;29;20611;-72
2022/12/21 11:48:49;;;;;;;20.25;13.13;;;8.10;99.90;;;;;;4889703;29;20079;-73
2022/12/21 11:51:47;;;;;;;32.55;18.67;;;8.20;99.90;;;;;;4884209;29;20049;-72
2022/12/21 11:54:38;;;;;;;20.65;13.50;;;8.20;99.90;;;;;;4876161;29;20056;-73
2022/12/21 11:57:24;;;;;;;22.73;12.93;;;8.30;99.90;;;;;;4883276;29;20056;-72
2022/12/21 12:00:08;;;;;;;19.33;13.05;;;8.40;99.90;;;;;;4880785;29;20047;-73
2022/12/21 12:03:30;;;;;;;21.23;12.80;;;8.40;99.90;;;;;;4875211;29;20420;-72
2022/12/21 12:06:03;;;;;;;20.85;12.52;;;8.50;99.90;;;;;;4892382;29;20079;-72
2022/12/21 12:08:39;;;;;;;19.40;11.90;;;8.50;99.90;;;;;;4880791;29;20528;-72
2022/12/21 12:11:18;;;;;;;20.95;11.88;;;8.70;99.90;;;;;;4892764;29;20423;-69
2022/12/21 12:14:11;;;;;;;22.73;11.90;;;8.70;99.90;;;;;;4891279;29;20044;-70
2022/12/21 12:16:48;;;;;;;19.05;11.95;;;8.80;99.90;;;;;;4887208;29;20068;-72
2022/12/21 12:19:41;;;;;;;20.40;11.27;;;8.90;99.90;;;;;;4875494;29;20124;-71
2022/12/21 12:22:30;;;;;;;17.67;10.60;;;9.10;99.90;;;;;;4880757;29;20076;-72
2022/12/21 12:25:19;;;;;;;14.93;9.60;;;9.20;99.90;;;;;;4880069;29;20511;-71
2022/12/21 12:28:05;;;;;;;18.75;10.77;;;9.10;99.90;;;;;;4879374;29;20052;-71
2022/12/21 12:31:06;;;;;;;18.60;10.75;;;9.00;99.90;;;;;;4893259;29;20136;-72
2022/12/21 12:34:08;;;;;;;17.08;10.68;;;9.10;99.90;;;;;;4876116;29;20060;-71
2022/12/21 12:37:12;;;;;;;19.73;11.57;;;9.10;99.90;;;;;;4891042;29;20057;-70
2022/12/21 12:39:58;;;;;;;21.33;11.95;;;9.10;99.90;;;;;;4888754;29;20045;-72
2022/12/21 12:42:59;;;;;;;17.38;11.35;;;9.20;99.90;;;;;;4905943;29;20162;-72
2022/12/21 12:45:26;;;;;;;17.27;11.35;;;9.10;99.90;;;;;;4855573;29;20057;-72
2022/12/21 12:48:24;;;;;;;18.60;11.43;;;9.20;99.90;;;;;;4856629;29;20061;-72
2022/12/21 12:51:13;;;;;;;19.60;10.80;;;9.20;99.90;;;;;;4842141;29;20136;-72
2022/12/21 12:54:03;;;;;;;20.42;10.82;;;9.30;99.90;;;;;;4842294;29;20154;-69
2022/12/21 12:56:52;;;;;;;19.65;10.90;;;9.30;99.90;;;;;;4797881;29;20078;-71
2022/12/21 12:59:19;;;;;;;23.73;11.70;;;9.30;99.90;;;;;;4787689;29;20146;-70
2022/12/21 13:01:58;;;;;;;17.02;10.65;;;9.40;99.90;;;;;;4786739;29;20055;-70
2022/12/21 13:04:52;;;;;;;16.17;10.27;;;9.50;99.90;;;;;;4796030;29;20074;-71
2022/12/21 13:07:51;;;;;;;14.52;10.07;;;9.60;99.90;;;;;;4802505;29;20086;-70
2022/12/21 13:10:42;;;;;;;14.32;8.88;;;9.60;99.90;;;;;;4798881;29;20120;-71
2022/12/21 13:13:28;;;;;;;22.60;13.20;;;9.90;99.90;;;;;;4798194;29;20161;-71
2022/12/21 13:16:18;;;;;;;13.05;8.00;;;10.20;99.90;;;;;;4787086;29;20106;-71
2022/12/21 13:18:54;;;;;;;11.40;6.65;;;11.40;99.90;;;;;;4799921;29;20560;-71
2022/12/21 13:21:25;;;;;;;11.65;7.25;;;12.70;99.90;;;;;;4790401;29;20051;-70
2022/12/21 13:23:57;;;;;;;10.00;6.20;;;14.40;99.90;;;;;;4840499;29;20053;-69
2022/12/21 13:26:28;;;;;;;10.32;5.85;;;15.60;99.90;;;;;;4836101;29;20514;-71
2022/12/21 13:29:14;;;;;;;10.27;5.83;;;16.00;99.90;;;;;;4839815;29;20054;-71
2022/12/21 13:31:49;;;;;;;11.70;7.30;;;16.60;99.90;;;;;;4823462;29;20057;-71
2022/12/21 13:34:34;;;;;;;10.05;6.70;;;17.10;99.90;;;;;;4850195;29;20519;-71
2022/12/21 13:37:07;;;;;;;9.98;6.97;;;16.80;99.90;;;;;;4879664;29;20067;-72